Time;durP1;ratioP1;P1;durP2;ratioP2;P2;SDS_P1;SDS_P2;PMS_P1;PMS_P2;Temp;Humidity;BMP_temperature;BMP_pressure;BME280_temperature;BME280_humidity;BME280_pressure;Samples;Min_cycle;Max_cycle;Signal;HPM_P1;HPM_P2
2023/02/12 00:01:34;;;;;;;33.08;22.08;;;;;7.10;100531.00;;;;5079170;28;20044;-62
2023/02/12 00:04:01;;;;;;;29.95;20.05;;;;;7.10;100535.00;;;;5082874;28;20516;-63
2023/02/12 00:06:27;;;;;;;33.65;20.80;;;;;7.00;100531.00;;;;5081996;28;20044;-62
2023/02/12 00:08:55;;;;;;;36.25;21.58;;;;;7.00;100534.00;;;;5083070;28;20047;-63
2023/02/12 00:11:24;;;;;;;30.17;20.58;;;;;7.00;100534.00;;;;5075513;28;20033;-63
2023/02/12 00:13:52;;;;;;;31.13;21.50;;;;;7.10;100541.00;;;;5075387;28;20114;-64
2023/02/12 00:16:22;;;;;;;32.70;22.05;;;;;7.00;100524.00;;;;5073409;28;20040;-63
2023/02/12 00:18:51;;;;;;;36.60;21.98;;;;;6.90;100536.00;;;;5074852;28;20500;-64
2023/02/12 00:21:19;;;;;;;32.65;20.85;;;;;6.90;100534.00;;;;5075024;28;20056;-64
2023/02/12 00:23:45;;;;;;;31.65;20.10;;;;;7.00;100529.00;;;;5074907;28;20044;-64
2023/02/12 00:26:14;;;;;;;31.83;21.27;;;;;7.10;100523.00;;;;5074231;28;20513;-63
2023/02/12 00:28:45;;;;;;;32.55;20.83;;;;;7.00;100534.00;;;;5073329;28;20086;-64
2023/02/12 00:31:17;;;;;;;34.95;21.10;;;;;7.00;100530.00;;;;5073050;28;20110;-64
2023/02/12 00:33:45;;;;;;;33.03;20.75;;;;;7.00;100530.00;;;;5074234;28;20050;-64
2023/02/12 00:36:18;;;;;;;33.72;21.38;;;;;6.90;100526.00;;;;5072651;28;20043;-63
2023/02/12 00:38:45;;;;;;;29.73;20.42;;;;;6.90;100530.00;;;;5073147;28;20045;-63
2023/02/12 00:41:12;;;;;;;28.25;19.30;;;;;6.90;100526.00;;;;5074042;28;20044;-64
2023/02/12 00:43:39;;;;;;;26.08;18.48;;;;;6.90;100528.00;;;;5073913;28;20049;-63
2023/02/12 00:46:07;;;;;;;27.55;17.17;;;;;6.90;100521.00;;;;5072231;28;20094;-64
2023/02/12 00:48:35;;;;;;;27.27;17.88;;;;;6.90;100520.00;;;;5073918;28;20079;-64
2023/02/12 00:51:02;;;;;;;29.15;18.00;;;;;6.90;100533.00;;;;5074056;28;20046;-64
2023/02/12 00:53:29;;;;;;;27.48;17.88;;;;;6.90;100523.00;;;;5072599;28;20059;-62
2023/02/12 00:55:56;;;;;;;27.15;17.58;;;;;7.00;100521.00;;;;5072002;28;20044;-64
2023/02/12 00:58:23;;;;;;;26.20;17.40;;;;;6.90;100529.00;;;;5074038;28;20044;-63
2023/02/12 01:00:50;;;;;;;26.40;16.85;;;;;6.70;100527.00;;;;5073894;28;20041;-64
2023/02/12 01:03:17;;;;;;;27.55;16.77;;;;;6.60;100529.00;;;;5073530;28;20048;-64
2023/02/12 01:05:43;;;;;;;29.48;18.13;;;;;6.60;100529.00;;;;5073302;28;20052;-63
2023/02/12 01:08:15;;;;;;;29.35;17.70;;;;;6.60;100535.00;;;;5073847;28;20036;-64
2023/02/12 01:10:42;;;;;;;30.15;20.83;;;;;6.60;100532.00;;;;5073354;28;20456;-63
2023/02/12 01:13:13;;;;;;;29.42;18.17;;;;;6.60;100533.00;;;;5073522;28;20050;-64
2023/02/12 01:15:41;;;;;;;30.10;17.83;;;;;6.60;100538.00;;;;5073465;28;20049;-64
2023/02/12 01:18:08;;;;;;;27.70;17.50;;;;;6.60;100537.00;;;;5072091;28;20102;-63
2023/02/12 01:20:34;;;;;;;22.83;15.50;;;;;6.60;100538.00;;;;5072091;28;20050;-63
2023/02/12 01:23:01;;;;;;;24.15;16.50;;;;;6.50;100542.00;;;;5073102;28;20041;-63
2023/02/12 01:25:27;;;;;;;26.27;16.75;;;;;6.50;100533.00;;;;5072669;28;20067;-62
2023/02/12 01:27:54;;;;;;;24.63;15.80;;;;;6.40;100534.00;;;;5073035;28;20109;-63
2023/02/12 01:30:23;;;;;;;24.92;15.88;;;;;6.40;100544.00;;;;5071781;28;20124;-64
2023/02/12 01:32:50;;;;;;;23.50;16.50;;;;;6.50;100540.00;;;;5072885;28;20063;-63
2023/02/12 01:35:16;;;;;;;25.83;17.25;;;;;6.60;100534.00;;;;5072459;28;20036;-63
2023/02/12 01:37:43;;;;;;;26.33;16.65;;;;;6.70;100535.00;;;;5072990;28;20405;-63
2023/02/12 01:40:13;;;;;;;31.27;16.42;;;;;6.70;100544.00;;;;5072861;28;20090;-63
2023/02/12 01:42:40;;;;;;;27.60;16.75;;;;;6.60;100551.00;;;;5072869;28;20531;-64
2023/02/12 01:45:12;;;;;;;26.65;16.25;;;;;6.50;100536.00;;;;5072264;28;20044;-63
2023/02/12 01:47:41;;;;;;;26.45;16.27;;;;;6.40;100537.00;;;;5072900;28;20051;-62
2023/02/12 01:50:13;;;;;;;25.38;15.60;;;;;6.40;100530.00;;;;5071344;28;20040;-63
2023/02/12 01:52:48;;;;;;;24.10;16.17;;;;;6.40;100542.00;;;;5071419;28;20044;-62
2023/02/12 01:55:15;;;;;;;24.75;16.67;;;;;6.40;100538.00;;;;5070894;28;20045;-63
2023/02/12 01:57:46;;;;;;;26.30;16.85;;;;;6.40;100529.00;;;;5054717;28;20131;-63
2023/02/12 02:00:16;;;;;;;24.98;16.23;;;;;6.50;100532.00;;;;5071206;28;20044;-64
2023/02/12 02:02:46;;;;;;;24.95;16.67;;;;;6.40;100523.00;;;;5071115;28;20110;-63
2023/02/12 02:05:21;;;;;;;24.23;15.82;;;;;6.40;100520.00;;;;5072111;28;20043;-63
2023/02/12 02:07:48;;;;;;;26.95;16.73;;;;;6.40;100525.00;;;;5071216;28;20048;-63
2023/02/12 02:10:15;;;;;;;27.10;17.23;;;;;6.40;100524.00;;;;5071125;28;20055;-62
2023/02/12 02:15:29;;;;;;;24.85;16.15;;;;;6.40;100523.00;;;;5070563;28;20130;-63
2023/02/12 02:18:01;;;;;;;27.38;17.40;;;;;6.40;100522.00;;;;5072480;28;20051;-62
2023/02/12 02:20:52;;;;;;;25.23;16.08;;;;;6.50;100523.00;;;;5072334;28;20120;-62
2023/02/12 02:23:51;;;;;;;32.30;16.23;;;;;6.40;100513.00;;;;5072129;28;20497;-64
2023/02/12 02:27:00;;;;;;;22.83;16.65;;;;;6.50;100520.00;;;;5071580;28;20044;-66
2023/02/12 02:29:52;;;;;;;26.83;17.13;;;;;6.40;100515.00;;;;5071674;28;20106;-60
2023/02/12 02:32:25;;;;;;;24.55;16.02;;;;;6.40;100519.00;;;;5072203;28;20307;-61
2023/02/12 02:35:12;;;;;;;26.10;16.85;;;;;6.50;100512.00;;;;5071663;28;20428;-61
2023/02/12 02:37:56;;;;;;;23.95;14.88;;;;;6.40;100498.00;;;;5050677;28;20063;-60
2023/02/12 02:40:30;;;;;;;25.58;17.40;;;;;6.50;100513.00;;;;5070988;28;20040;-60
2023/02/12 02:43:05;;;;;;;26.98;17.17;;;;;6.40;100511.00;;;;5071988;28;20508;-60
2023/02/12 02:45:44;;;;;;;25.02;16.60;;;;;6.40;100509.00;;;;5071522;28;20044;-60
2023/02/12 02:48:23;;;;;;;25.20;15.20;;;;;6.40;100506.00;;;;5072368;28;20051;-61
2023/02/12 02:50:58;;;;;;;26.25;15.88;;;;;6.40;100504.00;;;;5072229;28;20043;-61
2023/02/12 02:53:36;;;;;;;24.05;16.10;;;;;6.30;100498.00;;;;5071535;28;20052;-60
2023/02/12 02:56:06;;;;;;;26.98;16.13;;;;;6.30;100502.00;;;;5071370;28;20044;-61
2023/02/12 02:58:42;;;;;;;24.67;15.63;;;;;6.30;100496.00;;;;5071999;28;20040;-62
2023/02/12 03:01:16;;;;;;;23.58;15.25;;;;;6.30;100502.00;;;;5070479;28;20105;-62
2023/02/12 03:03:55;;;;;;;25.40;15.80;;;;;6.40;100497.00;;;;5071806;28;20041;-63
2023/02/12 03:06:27;;;;;;;24.67;15.18;;;;;6.40;100501.00;;;;5070567;28;20412;-62
2023/02/12 03:08:58;;;;;;;24.88;15.73;;;;;6.40;100498.00;;;;5070602;28;20701;-62
2023/02/12 03:11:27;;;;;;;24.05;14.55;;;;;6.40;100492.00;;;;5071691;28;20082;-62
2023/02/12 03:14:19;;;;;;;25.58;15.45;;;;;6.40;100498.00;;;;5071560;28;20044;-62
2023/02/12 03:17:09;;;;;;;28.95;15.55;;;;;6.50;100501.00;;;;5071838;28;20386;-62
2023/02/12 03:19:46;;;;;;;28.80;16.05;;;;;6.50;100502.00;;;;5072086;28;20033;-61
2023/02/12 03:22:17;;;;;;;25.73;15.27;;;;;6.50;100503.00;;;;5071683;28;20040;-60
2023/02/12 03:24:46;;;;;;;27.92;16.23;;;;;6.50;100501.00;;;;5070914;28;20041;-62
2023/02/12 03:27:20;;;;;;;26.02;16.85;;;;;6.50;100501.00;;;;5071529;28;20082;-61
2023/02/12 03:29:47;;;;;;;23.33;14.95;;;;;6.50;100490.00;;;;5071543;28;20090;-61
2023/02/12 03:32:32;;;;;;;24.02;15.55;;;;;6.40;100496.00;;;;5070614;28;20053;-61
2023/02/12 03:35:09;;;;;;;23.58;15.38;;;;;6.40;100503.00;;;;5071348;28;20110;-62
2023/02/12 03:37:54;;;;;;;26.08;15.05;;;;;6.50;100505.00;;;;5071755;28;20049;-61
2023/02/12 03:40:41;;;;;;;24.52;16.27;;;;;6.40;100493.00;;;;5072045;28;20537;-61
2023/02/12 03:43:29;;;;;;;26.88;16.27;;;;;6.50;100507.00;;;;5075164;28;20047;-61
2023/02/12 03:46:12;;;;;;;24.30;16.27;;;;;6.40;100493.00;;;;5057158;28;20048;-63
2023/02/12 03:49:00;;;;;;;28.10;15.98;;;;;6.30;100503.00;;;;5075870;28;20044;-62
2023/02/12 03:51:38;;;;;;;23.75;15.85;;;;;6.30;100507.00;;;;5075941;28;20060;-64
2023/02/12 03:54:07;;;;;;;24.25;16.63;;;;;6.30;100502.00;;;;5073927;28;20044;-64
2023/02/12 03:56:40;;;;;;;24.30;15.43;;;;;6.40;100505.00;;;;5073823;28;20102;-63
2023/02/12 03:59:07;;;;;;;21.42;15.48;;;;;6.40;100498.00;;;;5074887;28;20464;-62
2023/02/12 04:01:34;;;;;;;24.63;16.30;;;;;6.40;100503.00;;;;5074832;28;20044;-62
2023/02/12 04:04:06;;;;;;;23.10;15.80;;;;;6.40;100503.00;;;;5074670;28;20048;-64
2023/02/12 04:06:33;;;;;;;22.67;15.23;;;;;6.50;100507.00;;;;5073713;28;20064;-63
2023/02/12 04:09:10;;;;;;;25.83;16.52;;;;;6.40;100499.00;;;;5074714;28;20044;-62
2023/02/12 04:11:39;;;;;;;24.63;15.82;;;;;6.40;100501.00;;;;5056922;28;20052;-63
2023/02/12 04:14:09;;;;;;;27.27;16.13;;;;;6.40;100505.00;;;;5072457;28;20054;-62
2023/02/12 04:17:00;;;;;;;24.20;16.05;;;;;6.50;100519.00;;;;5074786;28;20036;-63
2023/02/12 04:20:00;;;;;;;23.08;14.50;;;;;6.40;100513.00;;;;5073170;28;20098;-64
2023/02/12 04:22:35;;;;;;;21.95;14.70;;;;;6.50;100514.00;;;;5074419;28;20045;-64
2023/02/12 04:25:19;;;;;;;25.40;16.15;;;;;6.50;100519.00;;;;5073823;28;20041;-63
2023/02/12 04:27:58;;;;;;;27.80;16.23;;;;;6.50;100521.00;;;;5074485;28;20064;-62
2023/02/12 04:30:35;;;;;;;20.85;14.77;;;;;6.40;100512.00;;;;5074428;28;20060;-64
2023/02/12 04:33:06;;;;;;;21.45;15.00;;;;;6.40;100516.00;;;;5074273;28;20041;-64
2023/02/12 04:35:50;;;;;;;26.10;16.05;;;;;6.40;100520.00;;;;5073652;28;20048;-65
2023/02/12 04:38:25;;;;;;;23.80;15.52;;;;;6.40;100516.00;;;;5073038;28;20044;-64
2023/02/12 04:40:52;;;;;;;25.88;15.23;;;;;6.40;100512.00;;;;5073982;28;20377;-62
2023/02/12 04:43:29;;;;;;;24.17;16.80;;;;;6.40;100511.00;;;;5072892;28;20056;-63
2023/02/12 04:45:56;;;;;;;21.90;14.40;;;;;6.40;100522.00;;;;5073619;28;20440;-62
2023/02/12 04:48:23;;;;;;;23.05;14.63;;;;;6.40;100511.00;;;;5074505;28;20106;-63
2023/02/12 04:50:49;;;;;;;23.48;15.05;;;;;6.40;100515.00;;;;5074277;28;20041;-63
2023/02/12 04:53:16;;;;;;;25.35;15.75;;;;;6.30;100506.00;;;;5073643;28;20431;-63
2023/02/12 04:55:43;;;;;;;25.42;15.50;;;;;6.30;100511.00;;;;5073291;28;20040;-63
2023/02/12 04:58:09;;;;;;;23.02;15.23;;;;;6.20;100516.00;;;;5073797;28;20052;-63
2023/02/12 05:00:36;;;;;;;21.08;14.57;;;;;6.30;100511.00;;;;5073684;28;20094;-63
2023/02/12 05:03:02;;;;;;;25.17;15.82;;;;;6.30;100515.00;;;;5073818;28;20041;-63
2023/02/12 05:05:29;;;;;;;24.95;15.52;;;;;6.40;100506.00;;;;5073090;28;20048;-63
2023/02/12 05:07:55;;;;;;;21.88;15.30;;;;;6.50;100505.00;;;;5074086;28;20052;-64
2023/02/12 05:10:22;;;;;;;22.90;15.30;;;;;6.60;100508.00;;;;5073528;28;20112;-63
2023/02/12 05:12:51;;;;;;;24.65;15.73;;;;;6.60;100515.00;;;;5073445;28;20048;-63
2023/02/12 05:15:18;;;;;;;23.02;15.15;;;;;6.60;100516.00;;;;5072163;28;20413;-62
2023/02/12 05:17:45;;;;;;;19.02;13.45;;;;;6.60;100523.00;;;;5073408;28;20444;-62
2023/02/12 05:20:12;;;;;;;22.52;14.38;;;;;6.60;100512.00;;;;5073286;28;20044;-62
2023/02/12 05:22:39;;;;;;;24.02;15.68;;;;;6.50;100516.00;;;;5073191;28;20110;-62
2023/02/12 05:25:05;;;;;;;23.50;14.63;;;;;6.40;100507.00;;;;5072612;28;20041;-62
2023/02/12 05:27:32;;;;;;;24.77;15.45;;;;;6.40;100513.00;;;;5073085;28;20046;-62
2023/02/12 05:29:59;;;;;;;22.77;14.82;;;;;6.30;100509.00;;;;5073135;28;20401;-62
2023/02/12 05:32:25;;;;;;;22.13;16.08;;;;;6.30;100511.00;;;;5072135;28;20122;-62
2023/02/12 05:34:52;;;;;;;22.67;15.52;;;;;6.30;100507.00;;;;5071337;28;20048;-61
2023/02/12 05:37:18;;;;;;;23.70;14.88;;;;;6.30;100509.00;;;;5072972;28;20452;-60
2023/02/12 05:39:47;;;;;;;24.75;15.68;;;;;6.20;100511.00;;;;5071722;28;20045;-62
2023/02/12 05:42:13;;;;;;;23.73;15.25;;;;;6.20;100505.00;;;;5073282;28;20051;-63
2023/02/12 05:44:40;;;;;;;27.35;15.77;;;;;6.20;100496.00;;;;5071509;28;20106;-65
2023/02/12 05:47:06;;;;;;;24.95;16.55;;;;;6.30;100510.00;;;;5073314;28;20489;-63
2023/02/12 05:49:33;;;;;;;26.25;16.90;;;;;6.30;100511.00;;;;5073237;28;20048;-63
2023/02/12 05:52:00;;;;;;;30.52;18.05;;;;;6.30;100510.00;;;;5071930;28;20044;-62
2023/02/12 05:54:28;;;;;;;24.67;16.48;;;;;6.30;100504.00;;;;5072113;28;20071;-63
2023/02/12 05:56:55;;;;;;;23.60;16.35;;;;;6.40;100519.00;;;;5072925;28;20456;-63
2023/02/12 05:59:22;;;;;;;27.15;17.83;;;;;6.40;100511.00;;;;5071564;28;20055;-62
2023/02/12 06:01:50;;;;;;;31.85;17.40;;;;;6.40;100514.00;;;;5072762;28;20451;-63
2023/02/12 06:04:23;;;;;;;25.40;16.58;;;;;6.40;100514.00;;;;5070954;28;20048;-63
2023/02/12 06:06:51;;;;;;;25.03;17.20;;;;;6.40;100509.00;;;;5072633;28;20105;-63
2023/02/12 06:09:18;;;;;;;28.83;18.60;;;;;6.50;100518.00;;;;5072428;28;20037;-63
2023/02/12 06:11:45;;;;;;;27.23;18.77;;;;;6.50;100520.00;;;;5072385;28;20059;-63
2023/02/12 06:14:15;;;;;;;27.35;19.02;;;;;6.50;100512.00;;;;5054184;28;20060;-65
2023/02/12 06:16:46;;;;;;;29.15;17.98;;;;;6.60;100514.00;;;;5072374;28;20051;-63
2023/02/12 06:19:13;;;;;;;28.33;17.92;;;;;6.50;100511.00;;;;5070889;28;20045;-63
2023/02/12 06:21:40;;;;;;;27.45;18.15;;;;;6.60;100520.00;;;;5072197;28;20048;-61
2023/02/12 06:24:08;;;;;;;26.35;18.33;;;;;6.60;100522.00;;;;5071991;28;20127;-63
2023/02/12 06:26:34;;;;;;;23.67;16.65;;;;;6.60;100520.00;;;;5072237;28;20541;-63
2023/02/12 06:29:01;;;;;;;24.45;17.40;;;;;6.60;100521.00;;;;5072132;28;20056;-64
2023/02/12 06:31:30;;;;;;;32.80;20.15;;;;;6.70;100525.00;;;;5070793;28;20041;-64
2023/02/12 06:33:59;;;;;;;33.03;18.63;;;;;6.70;100520.00;;;;5072027;28;20410;-66
2023/02/12 06:36:26;;;;;;;32.95;18.73;;;;;6.60;100531.00;;;;5071699;28;20074;-64
2023/02/12 06:38:53;;;;;;;30.58;20.02;;;;;6.60;100528.00;;;;5072071;28;20044;-63
2023/02/12 06:41:21;;;;;;;38.13;22.58;;;;;6.60;100528.00;;;;5072107;28;20094;-63
2023/02/12 06:43:48;;;;;;;37.60;23.00;;;;;6.50;100533.00;;;;5072162;28;20063;-63
2023/02/12 06:46:15;;;;;;;39.83;23.35;;;;;6.40;100533.00;;;;5071928;28;20106;-63
2023/02/12 06:48:42;;;;;;;35.00;22.45;;;;;6.40;100529.00;;;;5072587;28;20136;-63
2023/02/12 06:51:13;;;;;;;46.22;26.50;;;;;6.40;100526.00;;;;5072119;28;20037;-63
2023/02/12 06:53:39;;;;;;;37.35;23.10;;;;;6.40;100531.00;;;;5072598;28;20394;-64
2023/02/12 06:56:11;;;;;;;42.22;23.48;;;;;6.40;100527.00;;;;5071858;28;20401;-63
2023/02/12 06:58:41;;;;;;;34.47;21.58;;;;;6.40;100532.00;;;;5072231;28;20055;-62
2023/02/12 07:01:16;;;;;;;33.30;20.83;;;;;6.40;100533.00;;;;5071842;28;20045;-62
2023/02/12 07:03:49;;;;;;;32.42;21.00;;;;;6.50;100541.00;;;;5072364;28;20400;-63
2023/02/12 07:06:16;;;;;;;33.72;20.20;;;;;6.50;100544.00;;;;5071942;28;20053;-64
2023/02/12 07:08:42;;;;;;;32.05;20.70;;;;;6.50;100552.00;;;;5072539;28;20052;-63
2023/02/12 07:11:09;;;;;;;31.73;19.33;;;;;6.60;100548.00;;;;5072680;28;20043;-64
2023/02/12 07:13:36;;;;;;;29.40;19.13;;;;;6.60;100559.00;;;;5072119;28;20056;-64
2023/02/12 07:16:08;;;;;;;29.08;19.75;;;;;6.60;100556.00;;;;5073124;28;20405;-64
2023/02/12 07:18:36;;;;;;;29.35;18.88;;;;;6.60;100564.00;;;;5074679;28;20048;-63
2023/02/12 07:21:04;;;;;;;31.70;18.45;;;;;6.70;100565.00;;;;5075975;28;20045;-63
2023/02/12 07:23:31;;;;;;;29.85;19.13;;;;;6.60;100568.00;;;;5075744;28;20075;-64
2023/02/12 07:26:03;;;;;;;31.83;19.95;;;;;6.70;100572.00;;;;5075488;28;20062;-63
2023/02/12 07:28:33;;;;;;;30.17;19.40;;;;;6.60;100571.00;;;;5075611;28;20053;-63
2023/02/12 07:31:08;;;;;;;28.70;20.02;;;;;6.60;100574.00;;;;5075648;28;20493;-63
2023/02/12 07:33:36;;;;;;;31.95;19.55;;;;;6.70;100570.00;;;;5074141;28;20055;-64
2023/02/12 07:36:05;;;;;;;30.20;19.35;;;;;6.90;100573.00;;;;5074830;28;20070;-64
2023/02/12 07:38:34;;;;;;;29.00;18.85;;;;;6.80;100572.00;;;;5075497;28;20040;-64
2023/02/12 07:41:13;;;;;;;35.67;22.88;;;;;6.80;100562.00;;;;5075589;28;20090;-63
2023/02/12 07:43:42;;;;;;;32.55;20.33;;;;;6.90;100560.00;;;;5075405;28;20051;-62
2023/02/12 07:46:10;;;;;;;32.17;20.27;;;;;6.90;100560.00;;;;5074896;28;20140;-63
2023/02/12 07:48:37;;;;;;;32.45;20.30;;;;;7.00;100568.00;;;;5075778;28;20124;-63
2023/02/12 07:51:05;;;;;;;31.73;19.65;;;;;7.00;100569.00;;;;5075925;28;20094;-63
2023/02/12 07:53:32;;;;;;;30.50;18.92;;;;;7.00;100571.00;;;;5075543;28;20144;-62
2023/02/12 07:56:12;;;;;;;30.60;20.27;;;;;7.00;100574.00;;;;5074851;28;20045;-61
2023/02/12 07:58:40;;;;;;;31.20;20.90;;;;;7.00;100569.00;;;;5075464;28;20059;-62
2023/02/12 08:01:18;;;;;;;32.80;20.80;;;;;6.80;100576.00;;;;5073873;28;20048;-63
2023/02/12 08:03:45;;;;;;;29.90;20.73;;;;;6.80;100566.00;;;;5075701;28;20064;-65
2023/02/12 08:06:18;;;;;;;30.50;19.77;;;;;6.90;100572.00;;;;5074427;28;20041;-64
2023/02/12 08:08:45;;;;;;;32.38;19.88;;;;;7.00;100574.00;;;;5075203;28;20101;-62
2023/02/12 08:11:14;;;;;;;31.20;20.17;;;;;7.10;100564.00;;;;5073548;28;20037;-63
2023/02/12 08:13:40;;;;;;;34.78;20.42;;;;;7.10;100567.00;;;;5073210;28;20048;-64
2023/02/12 08:16:10;;;;;;;35.90;20.98;;;;;7.30;100559.00;;;;5073038;28;20452;-64
2023/02/12 08:18:36;;;;;;;33.10;21.38;;;;;7.40;100565.00;;;;5074666;28;20044;-64
2023/02/12 08:21:05;;;;;;;32.67;21.60;;;;;7.30;100567.00;;;;5074478;28;20043;-64
2023/02/12 08:23:32;;;;;;;39.22;22.58;;;;;7.40;100566.00;;;;5074502;28;20044;-64
2023/02/12 08:26:12;;;;;;;36.97;24.02;;;;;7.60;100569.00;;;;5074108;28;20452;-64
2023/02/12 08:28:42;;;;;;;37.20;22.52;;;;;7.60;100577.00;;;;5072770;28;20417;-62
2023/02/12 08:31:12;;;;;;;36.15;22.65;;;;;7.60;100577.00;;;;5074371;28;20048;-62
2023/02/12 08:33:39;;;;;;;33.83;21.50;;;;;7.50;100571.00;;;;5074488;28;20455;-62
2023/02/12 08:36:08;;;;;;;30.05;20.55;;;;;7.50;100572.00;;;;5074135;28;20562;-61
2023/02/12 08:38:36;;;;;;;43.38;25.90;;;;;7.60;100582.00;;;;5056841;28;20428;-63
2023/02/12 08:41:05;;;;;;;37.40;23.65;;;;;7.50;100581.00;;;;5074849;28;20106;-63
2023/02/12 08:43:33;;;;;;;37.22;23.88;;;;;7.40;100583.00;;;;5074919;28;20040;-62
2023/02/12 08:46:04;;;;;;;41.88;26.02;;;;;7.40;100577.00;;;;5075095;28;20044;-62
2023/02/12 08:48:31;;;;;;;40.35;24.65;;;;;7.50;100582.00;;;;5074951;28;20059;-62
2023/02/12 08:51:09;;;;;;;37.60;24.77;;;;;7.50;100577.00;;;;5074434;28;20098;-62
2023/02/12 08:53:37;;;;;;;45.22;25.80;;;;;7.50;100588.00;;;;5074297;28;20044;-62
2023/02/12 08:56:04;;;;;;;35.38;23.27;;;;;7.50;100587.00;;;;5072849;28;20044;-62
2023/02/12 08:58:31;;;;;;;42.88;24.50;;;;;7.50;100578.00;;;;5074810;28;20094;-63
2023/02/12 09:00:57;;;;;;;41.42;25.05;;;;;7.60;100591.00;;;;5073975;28;20115;-63
2023/02/12 09:03:24;;;;;;;38.13;23.45;;;;;7.70;100582.00;;;;5073849;28;20083;-61
2023/02/12 09:05:51;;;;;;;42.63;24.80;;;;;7.80;100581.00;;;;5073015;28;20052;-63
2023/02/12 09:08:18;;;;;;;37.53;22.58;;;;;7.80;100586.00;;;;5073811;28;20053;-62
2023/02/12 09:10:44;;;;;;;43.35;24.55;;;;;7.80;100591.00;;;;5073711;28;20045;-62
2023/02/12 09:13:13;;;;;;;38.58;23.80;;;;;7.80;100586.00;;;;5073884;28;20048;-63
2023/02/12 09:15:44;;;;;;;37.55;23.58;;;;;7.90;100586.00;;;;5073516;28;20044;-62
2023/02/12 09:18:12;;;;;;;42.33;26.23;;;;;7.90;100573.00;;;;5073631;28;20049;-63
2023/02/12 09:20:41;;;;;;;40.20;24.48;;;;;8.00;100583.00;;;;5074058;28;20098;-63
2023/02/12 09:23:10;;;;;;;45.45;26.73;;;;;8.00;100587.00;;;;5073630;28;20555;-63
2023/02/12 09:25:41;;;;;;;43.58;26.50;;;;;7.90;100577.00;;;;5073297;28;20044;-62
2023/02/12 09:28:12;;;;;;;46.65;28.30;;;;;7.90;100581.00;;;;5074648;28;20044;-62
2023/02/12 09:30:40;;;;;;;48.70;28.80;;;;;7.90;100582.00;;;;5073809;28;20045;-64
2023/02/12 09:33:09;;;;;;;48.95;29.63;;;;;7.90;100588.00;;;;5073323;28;20047;-63
2023/02/12 09:35:37;;;;;;;47.58;27.73;;;;;8.00;100581.00;;;;5071438;28;20056;-64
2023/02/12 09:38:04;;;;;;;48.38;28.92;;;;;8.00;100583.00;;;;5073290;28;20040;-64
2023/02/12 09:40:42;;;;;;;50.40;28.95;;;;;7.90;100578.00;;;;5073237;28;20047;-63
2023/02/12 09:43:32;;;;;;;51.10;28.67;;;;;7.90;100590.00;;;;5073103;28;20033;-64
2023/02/12 09:46:25;;;;;;;52.75;31.40;;;;;8.00;100592.00;;;;5072769;28;20036;-63
2023/02/12 09:49:16;;;;;;;48.35;28.30;;;;;8.10;100586.00;;;;5073466;28;20094;-63
2023/02/12 09:51:47;;;;;;;48.53;28.77;;;;;8.10;100583.00;;;;5065820;28;20056;-63
2023/02/12 09:54:19;;;;;;;49.20;27.45;;;;;8.20;100590.00;;;;5039637;28;20048;-61
2023/02/12 09:56:57;;;;;;;46.88;28.13;;;;;8.30;100591.00;;;;5072837;28;20044;-63
2023/02/12 09:59:40;;;;;;;49.50;28.77;;;;;8.30;100591.00;;;;5072815;28;20040;-62
2023/02/12 10:02:17;;;;;;;47.80;27.65;;;;;8.40;100578.00;;;;5071762;28;20098;-63
2023/02/12 10:04:48;;;;;;;44.88;26.60;;;;;8.40;100589.00;;;;5072285;28;20049;-61
2023/02/12 10:07:41;;;;;;;47.85;27.48;;;;;8.50;100596.00;;;;5072778;28;20133;-64
2023/02/12 10:10:30;;;;;;;48.47;26.92;;;;;8.50;100593.00;;;;5072699;28;20465;-63
2023/02/12 10:13:04;;;;;;;53.65;27.95;;;;;8.60;100595.00;;;;5073102;28;20041;-63
2023/02/12 10:15:35;;;;;;;46.05;26.63;;;;;8.60;100594.00;;;;5072522;28;20040;-64
2023/02/12 10:18:09;;;;;;;55.10;29.35;;;;;8.60;100592.00;;;;5074459;28;20094;-62
2023/02/12 10:20:50;;;;;;;52.63;30.05;;;;;8.70;100592.00;;;;5076185;28;20395;-64
2023/02/12 10:23:46;;;;;;;43.53;26.17;;;;;8.70;100601.00;;;;5076562;28;20334;-62
2023/02/12 10:26:38;;;;;;;47.70;26.48;;;;;8.80;100594.00;;;;5060207;28;20052;-63
2023/02/12 10:29:13;;;;;;;65.25;40.80;;;;;8.80;100594.00;;;;5076974;28;20040;-63
2023/02/12 10:31:43;;;;;;;44.15;26.75;;;;;8.70;100596.00;;;;5076911;28;20092;-63
2023/02/12 10:34:23;;;;;;;41.90;24.65;;;;;8.80;100596.00;;;;5074504;28;20056;-63
2023/02/12 10:36:54;;;;;;;37.58;22.85;;;;;8.80;100596.00;;;;5076792;28;20116;-63
2023/02/12 10:39:24;;;;;;;46.58;24.52;;;;;8.80;100591.00;;;;5076669;28;20517;-65
2023/02/12 10:42:00;;;;;;;48.97;29.23;;;;;8.80;100586.00;;;;5076718;28;20044;-63
2023/02/12 10:44:27;;;;;;;48.80;27.60;;;;;8.80;100575.00;;;;5078190;28;20131;-62
2023/02/12 10:46:54;;;;;;;44.92;27.55;;;;;8.90;100590.00;;;;5077599;28;20070;-62
2023/02/12 10:49:21;;;;;;;44.78;24.52;;;;;8.90;100580.00;;;;5073331;28;20098;-62
2023/02/12 10:52:11;;;;;;;42.50;25.13;;;;;8.90;100575.00;;;;5074336;28;20047;-62
2023/02/12 10:54:40;;;;;;;38.88;24.45;;;;;8.90;100570.00;;;;5073910;28;20052;-63
2023/02/12 10:57:15;;;;;;;38.13;22.08;;;;;8.90;100571.00;;;;5073741;28;20048;-63
2023/02/12 10:59:44;;;;;;;44.28;24.83;;;;;9.00;100573.00;;;;5073219;28;20041;-63
2023/02/12 11:02:37;;;;;;;41.28;23.05;;;;;9.00;100571.00;;;;5074115;28;20040;-63
2023/02/12 11:05:25;;;;;;;37.92;22.73;;;;;9.00;100564.00;;;;5071836;28;20059;-63
2023/02/12 11:07:51;;;;;;;36.28;22.02;;;;;9.00;100562.00;;;;5073558;28;20044;-61
2023/02/12 11:10:27;;;;;;;34.72;20.42;;;;;9.10;100571.00;;;;5074211;28;20044;-62
2023/02/12 11:12:54;;;;;;;34.38;20.48;;;;;9.10;100566.00;;;;5074923;28;20062;-63
2023/02/12 11:15:23;;;;;;;26.70;15.05;;;;;9.10;100562.00;;;;5072222;28;20044;-63
2023/02/12 11:18:01;;;;;;;22.67;13.63;;;;;9.10;100560.00;;;;5072896;28;20083;-64
2023/02/12 11:20:40;;;;;;;21.77;14.20;;;;;9.00;100558.00;;;;5072825;28;20064;-62
2023/02/12 11:23:41;;;;;;;21.92;14.15;;;;;9.10;100559.00;;;;5072677;28;20041;-63
2023/02/12 11:26:23;;;;;;;22.98;14.05;;;;;9.10;100546.00;;;;5071127;28;20049;-64
2023/02/12 11:29:17;;;;;;;21.42;13.20;;;;;9.20;100546.00;;;;5072359;28;20041;-63
2023/02/12 11:32:02;;;;;;;21.70;13.60;;;;;9.20;100547.00;;;;5072919;28;20043;-62
2023/02/12 11:34:29;;;;;;;19.15;12.30;;;;;9.30;100539.00;;;;5071831;28;20132;-63
2023/02/12 11:36:56;;;;;;;17.55;11.30;;;;;9.40;100540.00;;;;5072572;28;20060;-61
2023/02/12 11:39:33;;;;;;;16.15;11.32;;;;;9.40;100541.00;;;;5073284;28;20044;-64
2023/02/12 11:41:59;;;;;;;13.48;10.05;;;;;9.40;100529.00;;;;5072232;28;20041;-63
2023/02/12 11:44:33;;;;;;;19.88;13.00;;;;;9.40;100530.00;;;;5071585;28;20052;-63
2023/02/12 11:47:05;;;;;;;25.02;15.57;;;;;9.40;100535.00;;;;5072326;28;20044;-62
2023/02/12 11:49:37;;;;;;;18.42;12.05;;;;;9.40;100538.00;;;;5071821;28;20051;-63
2023/02/12 11:52:04;;;;;;;15.80;10.20;;;;;9.40;100532.00;;;;5072077;28;20047;-62
2023/02/12 11:54:40;;;;;;;13.95;10.38;;;;;9.50;100540.00;;;;5070022;28;20070;-62
2023/02/12 11:57:42;;;;;;;13.60;9.18;;;;;9.60;100532.00;;;;5071684;28;20509;-61
2023/02/12 12:00:14;;;;;;;14.60;9.75;;;;;9.60;100531.00;;;;5070581;28;20048;-62
2023/02/12 12:03:01;;;;;;;14.77;8.70;;;;;9.50;100529.00;;;;5072475;28;20445;-63
2023/02/12 12:05:35;;;;;;;13.98;8.93;;;;;9.50;100523.00;;;;5074504;28;20052;-64
2023/02/12 12:08:09;;;;;;;14.57;10.07;;;;;9.50;100525.00;;;;5074887;28;20056;-63
2023/02/12 12:10:46;;;;;;;12.68;8.57;;;;;9.60;100522.00;;;;5074150;28;20448;-63
2023/02/12 12:13:17;;;;;;;14.02;9.45;;;;;9.70;100522.00;;;;5073808;28;20400;-64
2023/02/12 12:22:01;;;;;;;15.15;9.80;;;;;9.90;100509.00;;;;5074634;28;20316;-62
2023/02/12 12:24:45;;;;;;;12.90;8.70;;;;;9.90;100511.00;;;;5074302;28;20048;-64
2023/02/12 12:28:04;;;;;;;;;;;;;9.90;100514.00;;;;5075088;28;20050;-64
2023/02/12 12:30:49;;;;;;;15.70;9.88;;;;;10.00;100506.00;;;;5048359;28;19928;-62
2023/02/12 12:33:25;;;;;;;12.68;8.73;;;;;10.00;100512.00;;;;5074678;28;20044;-63